Time;durP1;ratioP1;P1;durP2;ratioP2;P2;SDS_P1;SDS_P2;PMS_P1;PMS_P2;Temp;Humidity;BMP_temperature;BMP_pressure;BME280_temperature;BME280_humidity;BME280_pressure;Samples;Min_cycle;Max_cycle;Signal;HPM_P1;HPM_P2
2022/11/10 00:00:45;;;;;;;;;;;17.80;49.80;;;;;;5092362;28;19919;-88
2022/11/10 00:03:10;;;;;;;;;;;17.80;49.90;;;;;;5091872;28;19958;-87
2022/11/10 00:05:36;;;;;;;;;;;17.80;49.90;;;;;;5091330;28;19920;-85
2022/11/10 00:08:03;;;;;;;;;;;17.80;50.00;;;;;;5092453;28;19961;-88
2022/11/10 00:10:29;;;;;;;;;;;17.80;50.00;;;;;;5091383;28;20386;-87
2022/11/10 00:12:58;;;;;;;;;;;17.80;50.00;;;;;;5091244;28;19931;-89
2022/11/10 00:18:07;;;;;;;;;;;17.80;50.20;;;;;;5073750;28;20699;-88
2022/11/10 00:20:33;;;;;;;;;;;17.80;50.30;;;;;;5073809;28;19926;-88
2022/11/10 00:22:58;;;;;;;;;;;17.70;50.40;;;;;;5085322;28;19960;-86
2022/11/10 00:25:24;;;;;;;;;;;17.70;50.40;;;;;;5090812;28;19916;-85
2022/11/10 00:27:50;;;;;;;;;;;17.70;50.40;;;;;;5072127;28;19932;-87
2022/11/10 00:30:15;;;;;;;;;;;17.70;50.40;;;;;;5072354;28;20398;-88
2022/11/10 00:32:41;;;;;;;;;;;17.70;50.30;;;;;;5076603;28;19928;-86
2022/11/10 00:35:07;;;;;;;;;;;17.70;50.30;;;;;;5089408;28;19916;-88
2022/11/10 00:37:32;;;;;;;;;;;17.60;50.30;;;;;;5090263;28;20010;-87
2022/11/10 00:39:58;;;;;;;;;;;17.50;50.30;;;;;;5093365;28;19942;-86
2022/11/10 00:42:24;;;;;;;;;;;17.50;50.40;;;;;;5090203;28;20329;-87
2022/11/10 00:44:49;;;;;;;;;;;17.50;50.70;;;;;;5086781;28;19916;-88
2022/11/10 00:47:15;;;;;;;;;;;17.40;50.60;;;;;;5083868;28;19908;-88
2022/11/10 00:49:40;;;;;;;;;;;17.40;50.70;;;;;;5086220;28;20651;-88
2022/11/10 00:52:06;;;;;;;;;;;17.30;50.70;;;;;;5072483;28;19928;-88
2022/11/10 00:54:31;;;;;;;;;;;17.30;50.70;;;;;;5069424;28;19924;-86
2022/11/10 00:56:57;;;;;;;;;;;17.20;50.80;;;;;;5071716;28;19916;-89
2022/11/10 00:59:23;;;;;;;;;;;17.10;50.90;;;;;;5070894;28;20021;-88
2022/11/10 01:01:48;;;;;;;;;;;17.10;51.00;;;;;;5080771;28;20302;-89
2022/11/10 01:04:14;;;;;;;;;;;17.10;51.10;;;;;;5071599;28;20319;-89
2022/11/10 01:06:39;;;;;;;;;;;17.00;51.30;;;;;;5087478;28;19968;-88
2022/11/10 01:09:05;;;;;;;;;;;17.00;51.30;;;;;;5091526;28;19920;-86
2022/11/10 01:11:30;;;;;;;;;;;17.00;51.50;;;;;;5091571;28;20347;-88
2022/11/10 01:13:56;;;;;;;;;;;17.00;51.70;;;;;;5089797;28;20620;-88
2022/11/10 01:16:29;;;;;;;;;;;16.90;51.70;;;;;;5086655;28;19919;-86
2022/11/10 01:18:56;;;;;;;;;;;16.90;51.70;;;;;;5071227;28;19917;-87
2022/11/10 01:21:21;;;;;;;;;;;17.00;51.70;;;;;;5078132;28;19908;-86
2022/11/10 01:23:47;;;;;;;;;;;17.00;51.80;;;;;;5089914;28;19960;-88
2022/11/10 01:26:13;;;;;;;;;;;17.00;51.80;;;;;;5090950;28;19912;-89
2022/11/10 01:28:38;;;;;;;;;;;17.00;51.90;;;;;;5075924;28;20314;-89
2022/11/10 01:31:05;;;;;;;;;;;17.00;51.70;;;;;;5069404;28;20302;-88
2022/11/10 01:33:31;;;;;;;;;;;17.10;51.70;;;;;;5078338;28;19931;-88
2022/11/10 01:35:56;;;;;;;;;;;17.10;51.70;;;;;;5092226;28;19916;-88
2022/11/10 01:38:22;;;;;;;;;;;17.00;51.70;;;;;;5090959;28;19915;-87
2022/11/10 01:40:48;;;;;;;;;;;17.10;51.70;;;;;;5091078;28;20314;-86
2022/11/10 01:43:14;;;;;;;;;;;17.00;51.60;;;;;;5091580;28;20383;-88
2022/11/10 01:45:48;;;;;;;;;;;17.00;51.40;;;;;;5076352;28;19916;-88
2022/11/10 01:48:27;;;;;;;;;;;17.00;51.50;;;;;;5071275;28;19909;-86
2022/11/10 01:50:53;;;;;;;;;;;16.80;51.50;;;;;;5076678;28;20631;-88
2022/11/10 01:53:26;;;;;;;;;;;16.80;51.60;;;;;;5073812;28;20027;-88
2022/11/10 01:55:52;;;;;;;;;;;16.80;51.80;;;;;;5073645;28;19915;-88
2022/11/10 01:58:20;;;;;;;;;;;16.70;51.70;;;;;;5075220;28;19916;-87
2022/11/10 02:00:46;;;;;;;;;;;16.70;51.80;;;;;;5074950;28;19914;-88
2022/11/10 02:03:20;;;;;;;;;;;16.70;51.90;;;;;;5074399;28;19910;-86
2022/11/10 02:05:46;;;;;;;;;;;16.60;52.00;;;;;;5076708;28;19916;-88
2022/11/10 02:08:14;;;;;;;;;;;16.60;52.10;;;;;;5073513;28;19930;-87
2022/11/10 02:10:39;;;;;;;;;;;16.60;52.10;;;;;;5088218;28;19916;-88
2022/11/10 02:13:04;;;;;;;;;;;16.60;52.20;;;;;;5095055;28;19922;-88
2022/11/10 02:15:30;;;;;;;;;;;16.60;52.20;;;;;;5093394;28;19927;-89
2022/11/10 02:17:56;;;;;;;;;;;16.60;52.30;;;;;;5093199;28;20359;-87
2022/11/10 02:20:21;;;;;;;;;;;16.60;52.30;;;;;;5095015;28;19944;-88
2022/11/10 02:22:47;;;;;;;;;;;16.60;52.50;;;;;;5093071;28;19969;-87
2022/11/10 02:25:15;;;;;;;;;;;16.60;52.60;;;;;;5095487;28;19946;-88
2022/11/10 02:27:40;;;;;;;;;;;16.60;52.70;;;;;;5094937;28;19909;-89
2022/11/10 02:30:06;;;;;;;;;;;16.70;52.70;;;;;;5093225;28;19927;-88
2022/11/10 02:32:32;;;;;;;;;;;16.70;52.60;;;;;;5093284;28;19928;-86
2022/11/10 02:34:57;;;;;;;;;;;16.70;52.80;;;;;;5093250;28;19946;-89
2022/11/10 02:37:23;;;;;;;;;;;16.70;52.80;;;;;;5094667;28;19912;-86
2022/11/10 02:39:48;;;;;;;;;;;16.70;52.80;;;;;;5092892;28;19923;-88
2022/11/10 02:42:14;;;;;;;;;;;16.80;52.70;;;;;;5094401;28;19939;-88
2022/11/10 02:44:40;;;;;;;;;;;16.80;52.60;;;;;;5089575;28;19925;-88
2022/11/10 02:47:06;;;;;;;;;;;16.80;52.50;;;;;;5073768;28;19909;-88
2022/11/10 02:49:31;;;;;;;;;;;16.80;52.50;;;;;;5072913;28;19916;-88
2022/11/10 02:51:57;;;;;;;;;;;16.80;52.50;;;;;;5072767;28;19929;-88
2022/11/10 02:54:22;;;;;;;;;;;16.80;52.50;;;;;;5072423;28;19917;-86
2022/11/10 02:56:48;;;;;;;;;;;16.80;52.50;;;;;;5072326;28;20007;-87
2022/11/10 02:59:13;;;;;;;;;;;16.80;52.70;;;;;;5088923;28;20360;-86
2022/11/10 03:01:38;;;;;;;;;;;16.80;52.60;;;;;;5072564;28;19909;-88
2022/11/10 03:04:04;;;;;;;;;;;16.80;52.70;;;;;;5072022;28;19969;-86
2022/11/10 03:06:30;;;;;;;;;;;16.80;52.70;;;;;;5072671;28;19908;-87
2022/11/10 03:08:56;;;;;;;;;;;16.80;52.80;;;;;;5076742;28;20151;-88
2022/11/10 03:11:21;;;;;;;;;;;16.80;52.90;;;;;;5092251;28;19908;-88
2022/11/10 03:13:47;;;;;;;;;;;16.90;52.90;;;;;;5092178;28;20275;-86
2022/11/10 03:16:12;;;;;;;;;;;16.90;52.80;;;;;;5092597;28;19966;-88
2022/11/10 03:18:38;;;;;;;;;;;16.90;52.80;;;;;;5093996;28;19920;-88
2022/11/10 03:21:03;;;;;;;;;;;16.90;52.80;;;;;;5092238;28;19966;-87
2022/11/10 03:23:29;;;;;;;;;;;17.00;52.80;;;;;;5092305;28;19957;-87
2022/11/10 03:25:54;;;;;;;;;;;16.90;52.80;;;;;;5093341;28;19915;-87
2022/11/10 03:28:20;;;;;;;;;;;16.90;52.80;;;;;;5092628;28;19908;-88
2022/11/10 03:30:45;;;;;;;;;;;17.00;52.70;;;;;;5093257;28;20424;-89
2022/11/10 03:33:11;;;;;;;;;;;16.90;52.70;;;;;;5092112;28;19923;-88
2022/11/10 03:35:36;;;;;;;;;;;16.90;52.70;;;;;;5093763;28;19968;-88
2022/11/10 03:38:02;;;;;;;;;;;16.90;52.80;;;;;;5091834;28;19908;-88
2022/11/10 03:40:28;;;;;;;;;;;17.00;52.80;;;;;;5091796;28;20006;-88
2022/11/10 03:42:53;;;;;;;;;;;17.00;52.70;;;;;;5093576;28;19939;-88
2022/11/10 03:45:19;;;;;;;;;;;17.00;52.70;;;;;;5082941;28;19920;-86
2022/11/10 03:47:45;;;;;;;;;;;17.00;52.80;;;;;;5073336;28;19908;-88
2022/11/10 03:50:11;;;;;;;;;;;17.10;52.80;;;;;;5073063;28;20398;-89
2022/11/10 03:52:40;;;;;;;;;;;17.00;52.80;;;;;;5073989;28;19920;-86
2022/11/10 03:55:06;;;;;;;;;;;17.00;52.70;;;;;;5071167;28;19924;-85
2022/11/10 03:57:32;;;;;;;;;;;17.00;52.70;;;;;;5073045;28;19966;-87
2022/11/10 03:59:57;;;;;;;;;;;17.00;52.80;;;;;;5071182;28;19923;-86
2022/11/10 04:02:22;;;;;;;;;;;17.00;52.80;;;;;;5072500;28;19912;-88
2022/11/10 04:10:16;;;;;;;;;;;17.00;52.90;;;;;;5083497;28;19973;-89
2022/11/10 04:15:41;;;;;;;;;;;17.00;52.90;;;;;;5092988;28;19981;-88
2022/11/10 04:18:25;;;;;;;;;;;17.00;53.00;;;;;;5088431;28;19939;-88
2022/11/10 04:20:52;;;;;;;;;;;17.00;53.00;;;;;;5076442;28;20011;-88
2022/11/10 04:23:27;;;;;;;;;;;17.00;53.00;;;;;;5075328;28;19909;-89
2022/11/10 04:28:37;;;;;;;;;;;17.00;53.00;;;;;;5092413;28;19923;-89
2022/11/10 04:31:03;;;;;;;;;;;16.90;53.00;;;;;;5087716;28;20531;-86
2022/11/10 04:33:29;;;;;;;;;;;16.90;53.00;;;;;;5080274;28;20359;-88
2022/11/10 04:35:54;;;;;;;;;;;16.80;53.20;;;;;;5079339;28;19919;-87
2022/11/10 04:38:20;;;;;;;;;;;16.70;53.20;;;;;;5074692;28;19917;-87
2022/11/10 04:40:45;;;;;;;;;;;16.80;53.20;;;;;;5090502;28;19919;-87
2022/11/10 04:43:11;;;;;;;;;;;16.70;53.20;;;;;;5084506;28;19908;-88
2022/11/10 04:45:36;;;;;;;;;;;16.60;53.20;;;;;;5080041;28;20480;-88
2022/11/10 04:48:02;;;;;;;;;;;16.50;53.20;;;;;;5084036;28;19962;-87
2022/11/10 04:50:27;;;;;;;;;;;16.40;53.30;;;;;;5073772;28;19951;-88
2022/11/10 04:52:53;;;;;;;;;;;16.30;53.20;;;;;;5076394;28;20543;-88
2022/11/10 04:55:18;;;;;;;;;;;16.20;53.30;;;;;;5084001;28;19916;-87
2022/11/10 04:57:44;;;;;;;;;;;16.10;53.50;;;;;;5090250;28;19914;-85
2022/11/10 05:00:10;;;;;;;;;;;16.00;53.80;;;;;;5071516;28;19923;-88
2022/11/10 05:02:35;;;;;;;;;;;16.00;54.00;;;;;;5071595;28;20283;-88
2022/11/10 05:05:02;;;;;;;;;;;16.00;54.20;;;;;;5071599;28;20056;-85
2022/11/10 05:07:27;;;;;;;;;;;16.00;54.30;;;;;;5070086;28;19999;-85
2022/11/10 05:09:53;;;;;;;;;;;15.90;54.40;;;;;;5069781;28;20009;-88
2022/11/10 05:12:19;;;;;;;;;;;16.00;54.60;;;;;;5086743;28;19955;-85
2022/11/10 05:14:44;;;;;;;;;;;15.90;54.60;;;;;;5082455;28;20266;-88
2022/11/10 05:17:10;;;;;;;;;;;16.00;54.60;;;;;;5080270;28;19999;-89
2022/11/10 05:19:35;;;;;;;;;;;16.00;54.50;;;;;;5089914;28;19916;-88
2022/11/10 05:22:01;;;;;;;;;;;16.10;54.50;;;;;;5084898;28;19916;-86
2022/11/10 05:24:26;;;;;;;;;;;16.00;54.40;;;;;;5073420;28;19935;-89
2022/11/10 05:26:52;;;;;;;;;;;16.10;54.50;;;;;;5074785;28;19947;-88
2022/11/10 05:29:17;;;;;;;;;;;16.10;54.50;;;;;;5080514;28;19947;-87
2022/11/10 05:31:43;;;;;;;;;;;16.10;54.50;;;;;;5081879;28;19927;-86
2022/11/10 05:34:10;;;;;;;;;;;16.10;54.60;;;;;;5081674;28;20206;-88
2022/11/10 05:36:35;;;;;;;;;;;16.20;54.60;;;;;;5086025;28;20599;-87
2022/11/10 05:39:01;;;;;;;;;;;16.20;54.70;;;;;;5074992;28;20031;-87
2022/11/10 05:41:26;;;;;;;;;;;16.30;54.60;;;;;;5082440;28;19919;-88
2022/11/10 05:43:52;;;;;;;;;;;16.30;54.70;;;;;;5079414;28;20018;-88
2022/11/10 05:46:17;;;;;;;;;;;16.40;54.60;;;;;;5086594;28;20341;-88
2022/11/10 05:48:43;;;;;;;;;;;16.50;54.50;;;;;;5086203;28;20512;-86
2022/11/10 05:51:09;;;;;;;;;;;16.60;54.40;;;;;;5071077;28;19915;-85
2022/11/10 05:53:34;;;;;;;;;;;16.60;54.40;;;;;;5078376;28;20079;-86
2022/11/10 05:56:00;;;;;;;;;;;16.60;54.40;;;;;;5082243;28;19908;-89
2022/11/10 05:58:25;;;;;;;;;;;16.70;54.50;;;;;;5090736;28;19935;-88
2022/11/10 06:00:51;;;;;;;;;;;16.70;54.40;;;;;;5077107;28;20364;-89
2022/11/10 06:03:17;;;;;;;;;;;16.80;54.40;;;;;;5075639;28;20363;-88
2022/11/10 06:05:43;;;;;;;;;;;16.80;54.20;;;;;;5078919;28;20282;-89
2022/11/10 06:08:10;;;;;;;;;;;16.80;54.10;;;;;;5082532;28;20385;-87
2022/11/10 06:10:36;;;;;;;;;;;16.80;54.00;;;;;;5084912;28;19955;-88
2022/11/10 06:13:01;;;;;;;;;;;16.80;54.00;;;;;;5084732;28;20018;-89
2022/11/10 06:15:27;;;;;;;;;;;16.70;54.10;;;;;;5081132;28;20386;-89
2022/11/10 06:17:53;;;;;;;;;;;16.70;54.10;;;;;;5082008;28;19981;-89
2022/11/10 06:20:19;;;;;;;;;;;16.70;54.30;;;;;;5080460;28;20005;-88
2022/11/10 06:23:01;;;;;;;;;;;16.60;54.40;;;;;;5083822;28;19966;-88
2022/11/10 06:25:30;;;;;;;;;;;16.60;54.40;;;;;;5080628;28;20425;-88
2022/11/10 06:27:56;;;;;;;;;;;16.50;54.90;;;;;;5084189;28;19961;-88
2022/11/10 06:30:22;;;;;;;;;;;16.50;54.90;;;;;;5079669;28;19991;-87
2022/11/10 06:32:48;;;;;;;;;;;16.50;54.80;;;;;;5072799;28;19921;-86
2022/11/10 06:35:14;;;;;;;;;;;16.40;54.80;;;;;;5087884;28;19923;-88
2022/11/10 06:37:40;;;;;;;;;;;16.40;55.10;;;;;;5085507;28;19966;-87
2022/11/10 06:40:10;;;;;;;;;;;16.30;55.10;;;;;;5080003;28;19919;-88
2022/11/10 06:42:35;;;;;;;;;;;16.30;54.90;;;;;;5076351;28;19917;-88
2022/11/10 06:45:01;;;;;;;;;;;16.30;54.90;;;;;;5081625;28;19970;-87
2022/11/10 06:47:26;;;;;;;;;;;16.30;55.10;;;;;;5085869;28;20271;-86
2022/11/10 06:49:52;;;;;;;;;;;16.20;55.10;;;;;;5086415;28;20314;-86
2022/11/10 06:52:18;;;;;;;;;;;16.20;55.20;;;;;;5081963;28;19920;-87
2022/11/10 06:54:46;;;;;;;;;;;16.10;55.30;;;;;;5080934;28;20376;-88
2022/11/10 06:57:11;;;;;;;;;;;16.10;55.40;;;;;;5086224;28;20374;-87
2022/11/10 06:59:37;;;;;;;;;;;16.00;55.30;;;;;;5080058;28;19959;-88
2022/11/10 07:02:03;;;;;;;;;;;16.10;55.60;;;;;;5079250;28;19916;-87
2022/11/10 07:04:29;;;;;;;;;;;16.10;55.60;;;;;;5077426;28;20291;-87
2022/11/10 07:06:55;;;;;;;;;;;16.00;55.80;;;;;;5081357;28;20412;-88
2022/11/10 07:09:21;;;;;;;;;;;16.10;55.90;;;;;;5080257;28;20519;-88
2022/11/10 07:11:46;;;;;;;;;;;16.10;55.90;;;;;;5081279;28;19931;-86
2022/11/10 07:14:12;;;;;;;;;;;16.20;56.10;;;;;;5079864;28;19916;-88
2022/11/10 07:16:38;;;;;;;;;;;16.30;56.10;;;;;;5079653;28;19921;-88
2022/11/10 07:19:03;;;;;;;;;;;16.30;56.20;;;;;;5079036;28;19986;-84
2022/11/10 07:21:29;;;;;;;;;;;16.50;56.00;;;;;;5074791;28;19969;-88
2022/11/10 07:23:55;;;;;;;;;;;16.60;55.70;;;;;;5087417;28;19916;-89
2022/11/10 07:26:21;;;;;;;;;;;16.60;55.60;;;;;;5078093;28;20390;-88
2022/11/10 07:28:47;;;;;;;;;;;16.80;55.50;;;;;;5082399;28;20371;-87
2022/11/10 07:31:12;;;;;;;;;;;16.90;55.30;;;;;;5079078;28;20371;-87
2022/11/10 07:33:38;;;;;;;;;;;17.00;55.00;;;;;;5080068;28;20169;-87
2022/11/10 07:36:04;;;;;;;;;;;17.10;54.90;;;;;;5077691;28;19987;-88
2022/11/10 07:38:30;;;;;;;;;;;17.20;54.70;;;;;;5080609;28;20413;-87
2022/11/10 07:40:55;;;;;;;;;;;17.30;54.50;;;;;;5080740;28;19917;-89
2022/11/10 07:43:24;;;;;;;;;;;17.30;54.40;;;;;;5077950;28;19924;-88
2022/11/10 07:45:50;;;;;;;;;;;17.40;54.10;;;;;;5081114;28;19931;-89
2022/11/10 07:48:16;;;;;;;;;;;17.40;54.10;;;;;;5085023;28;19920;-85
2022/11/10 07:50:41;;;;;;;;;;;17.50;54.20;;;;;;5082571;28;20360;-90
2022/11/10 07:53:10;;;;;;;;;;;17.50;54.00;;;;;;5077736;28;20048;-85
2022/11/10 07:55:39;;;;;;;;;;;17.60;53.90;;;;;;5080000;28;19916;-88
2022/11/10 07:58:05;;;;;;;;;;;17.70;53.70;;;;;;5080176;28;19920;-87
2022/11/10 08:00:31;;;;;;;;;;;17.80;53.80;;;;;;5078007;28;20297;-86
2022/11/10 08:03:01;;;;;;;;;;;17.90;53.70;;;;;;5072538;28;19924;-88
2022/11/10 08:05:26;;;;;;;;;;;18.00;53.40;;;;;;5077778;28;20237;-86
2022/11/10 08:07:52;;;;;;;;;;;18.10;53.20;;;;;;5082872;28;19946;-89
2022/11/10 08:10:18;;;;;;;;;;;18.20;52.90;;;;;;5071569;28;20357;-89
2022/11/10 08:12:44;;;;;;;;;;;18.30;52.70;;;;;;5081804;28;19932;-87
2022/11/10 08:15:09;;;;;;;;;;;18.30;52.50;;;;;;5078980;28;19928;-88
2022/11/10 08:17:35;;;;;;;;;;;18.30;52.20;;;;;;5075360;28;20015;-87
2022/11/10 08:20:01;;;;;;;;;;;18.30;52.10;;;;;;5078643;28;20348;-87
2022/11/10 08:22:27;;;;;;;;;;;18.30;52.10;;;;;;5079971;28;19924;-85
2022/11/10 08:24:52;;;;;;;;;;;18.20;52.20;;;;;;5080777;28;19916;-88
2022/11/10 08:27:18;;;;;;;;;;;18.20;52.30;;;;;;5084776;28;19923;-87
2022/11/10 08:29:44;;;;;;;;;;;18.30;52.40;;;;;;5080278;28;19959;-85
2022/11/10 08:32:09;;;;;;;;;;;18.40;52.30;;;;;;5077508;28;19929;-87
2022/11/10 08:34:35;;;;;;;;;;;18.50;52.50;;;;;;5087576;28;19939;-87
2022/11/10 08:37:01;;;;;;;;;;;18.70;52.30;;;;;;5086791;28;19920;-86
2022/11/10 08:39:27;;;;;;;;;;;18.80;52.50;;;;;;5086473;28;19921;-88
2022/11/10 08:41:53;;;;;;;;;;;18.90;52.10;;;;;;5081912;28;20366;-87
2022/11/10 08:44:18;;;;;;;;;;;19.10;51.60;;;;;;5081349;28;19920;-88
2022/11/10 08:46:45;;;;;;;;;;;19.20;51.50;;;;;;5080356;28;19994;-89
2022/11/10 08:49:11;;;;;;;;;;;19.30;50.90;;;;;;5085887;28;20314;-88
2022/11/10 08:51:37;;;;;;;;;;;19.50;50.90;;;;;;5082838;28;20035;-86
2022/11/10 08:54:02;;;;;;;;;;;19.60;50.40;;;;;;5078058;28;20339;-89
2022/11/10 08:56:28;;;;;;;;;;;19.70;50.50;;;;;;5085203;28;19923;-88
2022/11/10 08:58:54;;;;;;;;;;;19.80;50.20;;;;;;5085412;28;19916;-88
2022/11/10 09:01:20;;;;;;;;;;;20.00;49.90;;;;;;5076991;28;19923;-89
2022/11/10 09:03:45;;;;;;;;;;;20.20;50.10;;;;;;5079704;28;19921;-89
2022/11/10 09:06:11;;;;;;;;;;;20.40;49.80;;;;;;5068589;28;19937;-88
2022/11/10 09:08:37;;;;;;;;;;;20.70;49.10;;;;;;5077568;28;19977;-89
2022/11/10 09:11:03;;;;;;;;;;;20.70;48.60;;;;;;5076560;28;19972;-86
2022/11/10 09:13:29;;;;;;;;;;;21.00;48.30;;;;;;5080373;28;20011;-88
2022/11/10 09:15:54;;;;;;;;;;;21.20;48.10;;;;;;5074405;28;19916;-89
2022/11/10 09:18:20;;;;;;;;;;;21.50;47.90;;;;;;5083406;28;19935;-86
2022/11/10 09:20:46;;;;;;;;;;;21.80;47.90;;;;;;5074298;28;20474;-88
2022/11/10 09:23:13;;;;;;;;;;;22.10;47.00;;;;;;5079340;28;19920;-85
2022/11/10 09:25:39;;;;;;;;;;;22.10;45.40;;;;;;5078909;28;20389;-87
2022/11/10 09:28:12;;;;;;;;;;;22.20;45.40;;;;;;5077459;28;20017;-87
2022/11/10 09:30:38;;;;;;;;;;;22.20;44.80;;;;;;5077481;28;19924;-87
2022/11/10 09:33:06;;;;;;;;;;;22.20;44.40;;;;;;5077014;28;19928;-89
2022/11/10 09:35:34;;;;;;;;;;;22.20;44.70;;;;;;5079066;28;19963;-88
2022/11/10 09:38:00;;;;;;;;;;;22.20;44.40;;;;;;5080312;28;20011;-86
2022/11/10 09:40:42;;;;;;;;;;;22.30;44.80;;;;;;5080637;28;19923;-88
2022/11/10 09:43:20;;;;;;;;;;;22.40;44.50;;;;;;5074908;28;19920;-87
2022/11/10 09:49:23;;;;;;;;;;;22.50;43.80;;;;;;5066664;28;19921;-86
2022/11/10 09:52:19;;;;;;;;;;;;;;;;;;;;;
2022/11/10 09:55:07;;;;;;;;;;;22.70;43.40;;;;;;5076764;28;19923;-88
2022/11/10 09:57:32;;;;;;;;;;;22.60;43.20;;;;;;5078598;28;19927;-90
2022/11/10 09:59:58;;;;;;;;;;;22.80;43.30;;;;;;5080045;28;19916;-89
2022/11/10 10:02:24;;;;;;;;;;;22.80;42.70;;;;;;5076629;28;19920;-90
2022/11/10 10:05:06;;;;;;;;;;;22.90;42.80;;;;;;5079810;28;19923;-89
2022/11/10 10:07:42;;;;;;;;;;;23.20;43.10;;;;;;5075274;28;20227;-88
2022/11/10 10:10:14;;;;;;;;;;;23.50;42.30;;;;;;5084415;28;19916;-89
2022/11/10 10:12:58;;;;;;;;;;;23.60;41.50;;;;;;5079901;28;19932;-89
2022/11/10 10:15:34;;;;;;;;;;;23.80;41.20;;;;;;5080028;28;20461;-89
2022/11/10 10:18:08;;;;;;;;;;;24.20;40.90;;;;;;5081001;28;19916;-86
2022/11/10 10:20:41;;;;;;;;;;;24.50;40.80;;;;;;5080183;28;19920;-89
2022/11/10 10:23:20;;;;;;;;;;;24.70;39.60;;;;;;5082181;28;19920;-90
2022/11/10 10:25:46;;;;;;;;;;;25.10;39.20;;;;;;5073144;28;19955;-89
2022/11/10 10:28:17;;;;;;;;;;;25.30;38.90;;;;;;5079463;28;19944;-89
2022/11/10 10:30:44;;;;;;;;;;;25.70;38.60;;;;;;5082857;28;19924;-88
2022/11/10 10:33:17;;;;;;;;;;;25.90;38.00;;;;;;5080680;28;19949;-89
2022/11/10 10:35:43;;;;;;;;;;;25.90;36.80;;;;;;5083452;28;20031;-89
2022/11/10 10:38:38;;;;;;;;;;;26.00;36.70;;;;;;5078832;28;19916;-88
2022/11/10 10:41:15;;;;;;;;;;;26.10;36.80;;;;;;5076899;28;19920;-87
2022/11/10 10:43:45;;;;;;;;;;;26.10;35.90;;;;;;5079100;28;20007;-90
2022/11/10 10:46:11;;;;;;;;;;;26.00;35.50;;;;;;5083996;28;19919;-90
2022/11/10 10:48:37;;;;;;;;;;;25.90;35.60;;;;;;5076015;28;20005;-90
2022/11/10 10:51:03;;;;;;;;;;;25.70;35.40;;;;;;5074365;28;19967;-87
2022/11/10 10:53:28;;;;;;;;;;;25.70;35.70;;;;;;5083553;28;20524;-88
2022/11/10 10:55:54;;;;;;;;;;;25.80;35.90;;;;;;5076943;28;19921;-89
2022/11/10 10:58:30;;;;;;;;;;;25.90;35.80;;;;;;5077252;28;19917;-88
2022/11/10 11:00:55;;;;;;;;;;;25.90;35.60;;;;;;5081822;28;20406;-87
2022/11/10 11:03:26;;;;;;;;;;;25.80;35.40;;;;;;5072832;28;20028;-89
2022/11/10 11:05:58;;;;;;;;;;;25.80;35.60;;;;;;5082150;28;19920;-87
2022/11/10 11:08:25;;;;;;;;;;;25.70;35.30;;;;;;5078813;28;19930;-89
2022/11/10 11:10:51;;;;;;;;;;;25.60;35.40;;;;;;5076535;28;19920;-87
2022/11/10 11:13:24;;;;;;;;;;;25.40;35.50;;;;;;5086258;28;19938;-89
2022/11/10 11:15:56;;;;;;;;;;;25.30;35.80;;;;;;5077705;28;20695;-86
2022/11/10 11:18:22;;;;;;;;;;;25.10;36.30;;;;;;5074927;28;19916;-89
2022/11/10 11:20:48;;;;;;;;;;;25.00;36.50;;;;;;5079562;28;20288;-89
2022/11/10 11:23:29;;;;;;;;;;;24.90;36.80;;;;;;5091834;28;20063;-89
2022/11/10 11:25:57;;;;;;;;;;;24.80;36.80;;;;;;5081889;28;19904;-89
2022/11/10 11:28:35;;;;;;;;;;;24.60;36.90;;;;;;5075693;28;19923;-89
2022/11/10 11:31:09;;;;;;;;;;;24.40;37.10;;;;;;5074552;28;19950;-88
2022/11/10 11:33:50;;;;;;;;;;;24.30;37.30;;;;;;5086114;28;19924;-87
2022/11/10 11:36:37;;;;;;;;;;;24.20;37.50;;;;;;5078347;28;20570;-88
2022/11/10 11:39:11;;;;;;;;;;;24.00;37.70;;;;;;5071841;28;19916;-87
2022/11/10 11:41:55;;;;;;;;;;;23.90;38.00;;;;;;5074480;28;19985;-87
2022/11/10 11:44:48;;;;;;;;;;;23.80;38.20;;;;;;5075937;28;20712;-88
2022/11/10 11:47:20;;;;;;;;;;;23.70;38.50;;;;;;5075624;28;19928;-87
2022/11/10 11:49:53;;;;;;;;;;;23.60;38.70;;;;;;5086117;28;19919;-89
2022/11/10 11:52:19;;;;;;;;;;;23.60;38.80;;;;;;5090201;28;20351;-90
2022/11/10 11:54:57;;;;;;;;;;;23.60;38.90;;;;;;5109569;28;20056;-89
2022/11/10 11:57:25;;;;;;;;;;;23.50;38.90;;;;;;5106870;28;19997;-89
2022/11/10 11:59:51;;;;;;;;;;;23.50;39.10;;;;;;5088184;28;20413;-89
2022/11/10 12:02:17;;;;;;;;;;;23.40;39.20;;;;;;5089745;28;19920;-87
2022/11/10 12:04:59;;;;;;;;;;;23.30;39.30;;;;;;5096214;28;19923;-89
2022/11/10 12:07:44;;;;;;;;;;;23.20;39.60;;;;;;5086462;28;19920;-87
2022/11/10 12:10:19;;;;;;;;;;;23.20;39.80;;;;;;5076191;28;19912;-87
2022/11/10 12:12:51;;;;;;;;;;;23.00;39.90;;;;;;5079246;28;20030;-85
2022/11/10 12:15:36;;;;;;;;;;;22.90;40.10;;;;;;5084031;28;19958;-90
2022/11/10 12:18:17;;;;;;;;;;;22.80;40.30;;;;;;5083896;28;19920;-88
2022/11/10 12:20:52;;;;;;;;;;;22.70;40.50;;;;;;5091755;28;19985;-87
2022/11/10 12:23:33;;;;;;;;;;;22.60;40.80;;;;;;5094472;28;20561;-87
2022/11/10 12:26:07;;;;;;;;;;;22.60;40.90;;;;;;5108604;28;19923;-89
2022/11/10 12:28:35;;;;;;;;;;;22.60;41.00;;;;;;5090933;28;19939;-88
2022/11/10 12:31:01;;;;;;;;;;;22.60;41.10;;;;;;5088600;28;19995;-89
2022/11/10 12:33:45;;;;;;;;;;;22.50;41.10;;;;;;5094926;28;20391;-89
2022/11/10 12:36:12;;;;;;;;;;;22.50;41.20;;;;;;5088366;28;19920;-90
2022/11/10 12:38:56;;;;;;;;;;;22.50;41.20;;;;;;5075998;28;19912;-88
2022/11/10 12:41:22;;;;;;;;;;;22.40;41.40;;;;;;5089588;28;19920;-88
2022/11/10 12:44:01;;;;;;;;;;;22.50;41.50;;;;;;5087042;28;19961;-90
2022/11/10 12:46:27;;;;;;;;;;;22.50;41.40;;;;;;5069075;28;20452;-89
2022/11/10 12:49:01;;;;;;;;;;;22.60;41.40;;;;;;5075696;28;20018;-86
2022/11/10 12:51:45;;;;;;;;;;;22.60;41.20;;;;;;5088486;28;19989;-88
2022/11/10 12:54:15;;;;;;;;;;;22.60;41.20;;;;;;5100133;28;20015;-90
2022/11/10 12:56:50;;;;;;;;;;;22.50;41.20;;;;;;5100837;28;19920;-90
2022/11/10 12:59:19;;;;;;;;;;;22.50;41.20;;;;;;5079649;28;20378;-87
2022/11/10 13:01:45;;;;;;;;;;;22.40;41.30;;;;;;5086823;28;20577;-89
2022/11/10 13:04:14;;;;;;;;;;;22.30;41.50;;;;;;5102074;28;19911;-85
2022/11/10 13:06:51;;;;;;;;;;;22.30;41.50;;;;;;5106887;28;20450;-86
2022/11/10 13:09:25;;;;;;;;;;;22.30;41.50;;;;;;5082581;28;19927;-85
2022/11/10 13:12:05;;;;;;;;;;;22.30;41.60;;;;;;5087004;28;19982;-88
2022/11/10 13:14:30;;;;;;;;;;;22.20;41.70;;;;;;5084776;28;20626;-86
2022/11/10 13:16:56;;;;;;;;;;;22.10;41.80;;;;;;5081051;28;19967;-89
2022/11/10 13:19:22;;;;;;;;;;;22.00;41.80;;;;;;5072480;28;19970;-89
2022/11/10 13:21:50;;;;;;;;;;;22.00;41.80;;;;;;5087403;28;19942;-88
2022/11/10 13:24:23;;;;;;;;;;;21.80;42.00;;;;;;5083029;28;20366;-86
2022/11/10 13:26:51;;;;;;;;;;;21.80;42.10;;;;;;5084604;28;19927;-89
2022/11/10 13:29:36;;;;;;;;;;;21.70;42.30;;;;;;5078621;28;19920;-89
2022/11/10 13:32:07;;;;;;;;;;;21.70;42.30;;;;;;5079925;28;20405;-89
2022/11/10 13:34:33;;;;;;;;;;;21.70;42.40;;;;;;5083147;28;19921;-88
2022/11/10 13:37:01;;;;;;;;;;;21.70;42.40;;;;;;5086367;28;19920;-86
2022/11/10 13:39:31;;;;;;;;;;;21.70;42.40;;;;;;5079340;28;19968;-88
2022/11/10 13:42:02;;;;;;;;;;;21.70;42.30;;;;;;5077677;28;19916;-87
2022/11/10 13:44:34;;;;;;;;;;;21.70;42.30;;;;;;5077298;28;19920;-87
2022/11/10 13:47:08;;;;;;;;;;;21.60;42.30;;;;;;5074513;28;20433;-89
2022/11/10 13:49:51;;;;;;;;;;;21.70;42.30;;;;;;5084720;28;19920;-89
2022/11/10 13:52:28;;;;;;;;;;;21.70;42.40;;;;;;5088410;28;19928;-89
2022/11/10 13:55:09;;;;;;;;;;;21.70;42.30;;;;;;5088878;28;19920;-87
2022/11/10 13:57:36;;;;;;;;;;;21.70;42.40;;;;;;5084682;28;20031;-88
2022/11/10 14:00:15;;;;;;;;;;;21.60;42.50;;;;;;5084539;28;19921;-87
2022/11/10 14:02:44;;;;;;;;;;;21.60;42.60;;;;;;5085876;28;19916;-88
2022/11/10 14:05:28;;;;;;;;;;;21.60;42.50;;;;;;5090320;28;19983;-90
2022/11/10 14:08:00;;;;;;;;;;;21.60;42.50;;;;;;5067641;28;19916;-86
2022/11/10 14:10:33;;;;;;;;;;;21.60;42.60;;;;;;5083131;28;19952;-88
2022/11/10 14:13:04;;;;;;;;;;;21.50;42.60;;;;;;5084800;28;19958;-87
2022/11/10 14:15:37;;;;;;;;;;;21.50;42.60;;;;;;5081338;28;20019;-89
2022/11/10 14:18:13;;;;;;;;;;;21.60;42.70;;;;;;5074987;28;19951;-89
2022/11/10 14:20:45;;;;;;;;;;;21.50;42.70;;;;;;5088787;28;19926;-88
2022/11/10 14:23:32;;;;;;;;;;;21.60;42.70;;;;;;5092229;28;19957;-87
2022/11/10 14:25:59;;;;;;;;;;;21.60;42.80;;;;;;5097460;28;19927;-87
2022/11/10 14:28:27;;;;;;;;;;;21.50;42.80;;;;;;5072900;28;19950;-88
2022/11/10 14:30:54;;;;;;;;;;;21.50;42.80;;;;;;5083296;28;19920;-85
2022/11/10 14:33:20;;;;;;;;;;;21.50;42.90;;;;;;5075996;28;20535;-89
2022/11/10 14:35:46;;;;;;;;;;;21.40;42.90;;;;;;5086782;28;19916;-89
2022/11/10 14:38:15;;;;;;;;;;;21.40;43.00;;;;;;5073748;28;20525;-90
2022/11/10 14:40:41;;;;;;;;;;;21.40;42.90;;;;;;5087600;28;19912;-89
2022/11/10 14:43:23;;;;;;;;;;;21.40;42.90;;;;;;5081952;28;19958;-88